sensor_id;sensor_type;location;lat;lon;timestamp;temperature;humidity
11093;DHT22;5600;50.864;6.102;2022-10-24T00:02:00;17.70;99.90
11093;DHT22;5600;50.864;6.102;2022-10-24T00:05:01;17.80;99.90
11093;DHT22;5600;50.864;6.102;2022-10-24T00:08:02;18.00;99.90
11093;DHT22;5600;50.864;6.102;2022-10-24T00:11:11;18.00;99.90
11093;DHT22;5600;50.864;6.102;2022-10-24T00:14:12;18.00;99.90
11093;DHT22;5600;50.864;6.102;2022-10-24T00:17:13;18.10;99.90
11093;DHT22;5600;50.864;6.102;2022-10-24T00:20:13;18.10;99.90
11093;DHT22;5600;50.864;6.102;2022-10-24T00:23:14;18.10;99.90
11093;DHT22;5600;50.864;6.102;2022-10-24T00:26:15;18.20;99.90
11093;DHT22;5600;50.864;6.102;2022-10-24T00:29:16;18.20;99.90
11093;DHT22;5600;50.864;6.102;2022-10-24T00:32:17;18.20;99.90
11093;DHT22;5600;50.864;6.102;2022-10-24T00:35:18;18.30;99.90
11093;DHT22;5600;50.864;6.102;2022-10-24T00:38:19;18.30;99.90
11093;DHT22;5600;50.864;6.102;2022-10-24T00:41:37;18.20;99.90
11093;DHT22;5600;50.864;6.102;2022-10-24T00:44:40;18.30;99.90
11093;DHT22;5600;50.864;6.102;2022-10-24T00:47:40;18.30;99.90
11093;DHT22;5600;50.864;6.102;2022-10-24T00:50:42;18.20;99.90
11093;DHT22;5600;50.864;6.102;2022-10-24T00:53:47;18.20;99.90
11093;DHT22;5600;50.864;6.102;2022-10-24T00:57:05;18.20;99.90
11093;DHT22;5600;50.864;6.102;2022-10-24T01:00:17;18.20;99.90
11093;DHT22;5600;50.864;6.102;2022-10-24T01:03:18;18.20;99.90
11093;DHT22;5600;50.864;6.102;2022-10-24T01:09:48;18.00;99.90
11093;DHT22;5600;50.864;6.102;2022-10-24T01:32:50;17.90;99.90
11093;DHT22;5600;50.864;6.102;2022-10-24T01:35:57;17.90;99.90
11093;DHT22;5600;50.864;6.102;2022-10-24T01:39:02;17.90;99.90
11093;DHT22;5600;50.864;6.102;2022-10-24T01:42:06;17.90;99.90
11093;DHT22;5600;50.864;6.102;2022-10-24T01:45:11;17.80;99.90
11093;DHT22;5600;50.864;6.102;2022-10-24T01:48:17;17.90;99.90
11093;DHT22;5600;50.864;6.102;2022-10-24T01:51:22;17.90;99.90
11093;DHT22;5600;50.864;6.102;2022-10-24T01:54:23;17.90;99.90
11093;DHT22;5600;50.864;6.102;2022-10-24T01:57:29;18.00;99.90
11093;DHT22;5600;50.864;6.102;2022-10-24T02:00:29;18.10;99.90
11093;DHT22;5600;50.864;6.102;2022-10-24T02:03:38;18.10;99.90
11093;DHT22;5600;50.864;6.102;2022-10-24T02:06:40;18.10;99.90
11093;DHT22;5600;50.864;6.102;2022-10-24T02:09:44;18.20;99.90
11093;DHT22;5600;50.864;6.102;2022-10-24T02:12:51;18.20;99.90
11093;DHT22;5600;50.864;6.102;2022-10-24T02:15:56;18.30;99.90
11093;DHT22;5600;50.864;6.102;2022-10-24T02:18:59;18.20;99.90
11093;DHT22;5600;50.864;6.102;2022-10-24T02:22:48;18.20;99.90
11093;DHT22;5600;50.864;6.102;2022-10-24T02:25:33;18.20;99.90
11093;DHT22;5600;50.864;6.102;2022-10-24T02:28:41;18.10;99.90
11093;DHT22;5600;50.864;6.102;2022-10-24T02:31:47;18.10;99.90
11093;DHT22;5600;50.864;6.102;2022-10-24T02:34:49;18.10;99.90
11093;DHT22;5600;50.864;6.102;2022-10-24T02:37:54;18.10;99.90
11093;DHT22;5600;50.864;6.102;2022-10-24T02:40:57;18.10;99.90
11093;DHT22;5600;50.864;6.102;2022-10-24T02:43:59;18.10;99.90
11093;DHT22;5600;50.864;6.102;2022-10-24T02:47:03;18.00;99.90
11093;DHT22;5600;50.864;6.102;2022-10-24T02:50:05;17.90;99.90
11093;DHT22;5600;50.864;6.102;2022-10-24T02:53:09;18.00;99.90
11093;DHT22;5600;50.864;6.102;2022-10-24T02:56:11;17.90;99.90
11093;DHT22;5600;50.864;6.102;2022-10-24T02:59:12;18.00;99.90
11093;DHT22;5600;50.864;6.102;2022-10-24T03:02:13;18.00;99.90
11093;DHT22;5600;50.864;6.102;2022-10-24T03:05:13;18.00;99.90
11093;DHT22;5600;50.864;6.102;2022-10-24T03:08:14;17.90;99.90
11093;DHT22;5600;50.864;6.102;2022-10-24T03:11:15;17.80;99.90
11093;DHT22;5600;50.864;6.102;2022-10-24T03:14:15;17.80;99.90
11093;DHT22;5600;50.864;6.102;2022-10-24T03:17:16;17.80;99.90
11093;DHT22;5600;50.864;6.102;2022-10-24T03:20:17;17.90;99.90
11093;DHT22;5600;50.864;6.102;2022-10-24T03:23:17;17.30;99.90
11093;DHT22;5600;50.864;6.102;2022-10-24T03:26:18;17.80;99.90
11093;DHT22;5600;50.864;6.102;2022-10-24T03:29:19;17.80;99.90
11093;DHT22;5600;50.864;6.102;2022-10-24T03:32:20;17.80;99.90
11093;DHT22;5600;50.864;6.102;2022-10-24T03:35:21;17.80;99.90
11093;DHT22;5600;50.864;6.102;2022-10-24T03:38:22;17.70;99.90
11093;DHT22;5600;50.864;6.102;2022-10-24T03:41:23;17.70;99.90
11093;DHT22;5600;50.864;6.102;2022-10-24T03:44:23;17.60;99.90
11093;DHT22;5600;50.864;6.102;2022-10-24T03:47:24;17.60;99.90
11093;DHT22;5600;50.864;6.102;2022-10-24T03:50:25;17.60;99.90
11093;DHT22;5600;50.864;6.102;2022-10-24T03:53:25;17.60;99.90
11093;DHT22;5600;50.864;6.102;2022-10-24T03:56:26;17.70;99.90
11093;DHT22;5600;50.864;6.102;2022-10-24T03:59:27;17.70;99.90
11093;DHT22;5600;50.864;6.102;2022-10-24T04:02:27;17.70;99.90
11093;DHT22;5600;50.864;6.102;2022-10-24T04:05:28;17.70;99.90
11093;DHT22;5600;50.864;6.102;2022-10-24T04:08:29;17.70;99.90
11093;DHT22;5600;50.864;6.102;2022-10-24T04:11:29;17.70;99.90
11093;DHT22;5600;50.864;6.102;2022-10-24T04:14:30;17.70;99.90
11093;DHT22;5600;50.864;6.102;2022-10-24T04:17:31;17.70;99.90
11093;DHT22;5600;50.864;6.102;2022-10-24T04:20:32;17.60;99.90
11093;DHT22;5600;50.864;6.102;2022-10-24T04:23:33;17.60;99.90
11093;DHT22;5600;50.864;6.102;2022-10-24T04:26:40;17.60;99.90
11093;DHT22;5600;50.864;6.102;2022-10-24T04:29:40;17.60;99.90
11093;DHT22;5600;50.864;6.102;2022-10-24T04:32:41;17.60;99.90
11093;DHT22;5600;50.864;6.102;2022-10-24T04:35:47;17.60;99.90
11093;DHT22;5600;50.864;6.102;2022-10-24T04:38:47;17.60;99.90
11093;DHT22;5600;50.864;6.102;2022-10-24T04:41:48;17.50;99.90
11093;DHT22;5600;50.864;6.102;2022-10-24T04:44:49;17.50;99.90
11093;DHT22;5600;50.864;6.102;2022-10-24T04:47:49;17.50;99.90
11093;DHT22;5600;50.864;6.102;2022-10-24T04:50:50;17.50;99.90
11093;DHT22;5600;50.864;6.102;2022-10-24T04:53:51;17.50;99.90
11093;DHT22;5600;50.864;6.102;2022-10-24T04:56:52;17.50;99.90
11093;DHT22;5600;50.864;6.102;2022-10-24T04:59:52;17.50;99.90
11093;DHT22;5600;50.864;6.102;2022-10-24T05:02:53;16.60;99.90
11093;DHT22;5600;50.864;6.102;2022-10-24T05:05:54;17.50;99.90
11093;DHT22;5600;50.864;6.102;2022-10-24T05:08:54;17.40;99.90
11093;DHT22;5600;50.864;6.102;2022-10-24T05:11:56;17.40;99.90
11093;DHT22;5600;50.864;6.102;2022-10-24T05:14:56;17.40;99.90
11093;DHT22;5600;50.864;6.102;2022-10-24T05:17:57;17.40;99.90
11093;DHT22;5600;50.864;6.102;2022-10-24T05:20:59;17.30;99.90
11093;DHT22;5600;50.864;6.102;2022-10-24T05:24:00;17.30;99.90
11093;DHT22;5600;50.864;6.102;2022-10-24T05:27:01;17.30;99.90
11093;DHT22;5600;50.864;6.102;2022-10-24T05:30:02;17.30;99.90
11093;DHT22;5600;50.864;6.102;2022-10-24T05:33:02;17.30;99.90
11093;DHT22;5600;50.864;6.102;2022-10-24T05:36:03;17.10;99.90
11093;DHT22;5600;50.864;6.102;2022-10-24T05:39:04;17.10;99.90
11093;DHT22;5600;50.864;6.102;2022-10-24T05:42:05;17.10;99.90
11093;DHT22;5600;50.864;6.102;2022-10-24T05:45:08;17.10;99.90
11093;DHT22;5600;50.864;6.102;2022-10-24T05:48:09;17.00;99.90
11093;DHT22;5600;50.864;6.102;2022-10-24T05:51:10;17.00;99.90
11093;DHT22;5600;50.864;6.102;2022-10-24T05:54:11;17.00;99.90
11093;DHT22;5600;50.864;6.102;2022-10-24T05:57:11;17.00;99.90
11093;DHT22;5600;50.864;6.102;2022-10-24T06:00:14;16.90;99.90
11093;DHT22;5600;50.864;6.102;2022-10-24T06:03:15;16.90;99.90
11093;DHT22;5600;50.864;6.102;2022-10-24T06:06:15;16.90;99.90
11093;DHT22;5600;50.864;6.102;2022-10-24T06:09:16;16.80;99.90
11093;DHT22;5600;50.864;6.102;2022-10-24T06:12:17;16.70;99.90
11093;DHT22;5600;50.864;6.102;2022-10-24T06:15:17;16.80;99.90
11093;DHT22;5600;50.864;6.102;2022-10-24T06:18:18;16.80;99.90
11093;DHT22;5600;50.864;6.102;2022-10-24T06:21:19;16.80;99.90
11093;DHT22;5600;50.864;6.102;2022-10-24T06:24:19;16.80;99.90
11093;DHT22;5600;50.864;6.102;2022-10-24T06:27:20;16.80;99.90
11093;DHT22;5600;50.864;6.102;2022-10-24T06:30:21;16.80;99.90
11093;DHT22;5600;50.864;6.102;2022-10-24T06:33:21;16.80;99.90
11093;DHT22;5600;50.864;6.102;2022-10-24T06:36:22;16.70;99.90
11093;DHT22;5600;50.864;6.102;2022-10-24T06:39:23;16.80;99.90
11093;DHT22;5600;50.864;6.102;2022-10-24T06:42:23;16.80;99.90
11093;DHT22;5600;50.864;6.102;2022-10-24T06:45:24;16.80;99.90
11093;DHT22;5600;50.864;6.102;2022-10-24T06:48:25;16.80;99.90
11093;DHT22;5600;50.864;6.102;2022-10-24T06:51:26;16.80;99.90
11093;DHT22;5600;50.864;6.102;2022-10-24T06:54:26;16.80;99.90
11093;DHT22;5600;50.864;6.102;2022-10-24T06:57:27;16.80;99.90
11093;DHT22;5600;50.864;6.102;2022-10-24T07:00:28;16.80;99.90
11093;DHT22;5600;50.864;6.102;2022-10-24T07:03:28;16.70;99.90
11093;DHT22;5600;50.864;6.102;2022-10-24T07:06:29;16.70;99.90
11093;DHT22;5600;50.864;6.102;2022-10-24T07:09:30;16.70;99.90
11093;DHT22;5600;50.864;6.102;2022-10-24T07:12:31;16.70;99.90
11093;DHT22;5600;50.864;6.102;2022-10-24T07:15:31;16.70;99.90
11093;DHT22;5600;50.864;6.102;2022-10-24T07:18:32;16.70;99.90
11093;DHT22;5600;50.864;6.102;2022-10-24T07:21:34;16.70;99.90
11093;DHT22;5600;50.864;6.102;2022-10-24T07:24:34;16.80;99.90
11093;DHT22;5600;50.864;6.102;2022-10-24T07:27:35;16.80;99.90
11093;DHT22;5600;50.864;6.102;2022-10-24T07:30:38;16.80;99.90
11093;DHT22;5600;50.864;6.102;2022-10-24T07:33:38;16.90;99.90
11093;DHT22;5600;50.864;6.102;2022-10-24T07:36:39;16.90;99.90
11093;DHT22;5600;50.864;6.102;2022-10-24T07:39:39;16.90;99.90
11093;DHT22;5600;50.864;6.102;2022-10-24T07:42:40;17.00;99.90
11093;DHT22;5600;50.864;6.102;2022-10-24T07:45:41;17.10;99.90
11093;DHT22;5600;50.864;6.102;2022-10-24T07:48:43;17.30;99.90
11093;DHT22;5600;50.864;6.102;2022-10-24T07:51:43;17.40;99.90
11093;DHT22;5600;50.864;6.102;2022-10-24T07:54:44;17.50;99.90
11093;DHT22;5600;50.864;6.102;2022-10-24T07:57:44;17.50;99.90
11093;DHT22;5600;50.864;6.102;2022-10-24T08:00:45;17.60;99.90
11093;DHT22;5600;50.864;6.102;2022-10-24T08:03:47;17.70;99.90
11093;DHT22;5600;50.864;6.102;2022-10-24T08:06:47;17.70;99.90
11093;DHT22;5600;50.864;6.102;2022-10-24T08:09:48;17.70;99.90
11093;DHT22;5600;50.864;6.102;2022-10-24T08:12:50;17.70;99.90
11093;DHT22;5600;50.864;6.102;2022-10-24T08:15:51;17.60;99.90
11093;DHT22;5600;50.864;6.102;2022-10-24T08:18:54;17.60;99.90
11093;DHT22;5600;50.864;6.102;2022-10-24T08:21:55;17.60;99.90
11093;DHT22;5600;50.864;6.102;2022-10-24T08:24:56;17.60;99.90
11093;DHT22;5600;50.864;6.102;2022-10-24T08:27:56;17.60;99.90
11093;DHT22;5600;50.864;6.102;2022-10-24T08:31:09;17.70;99.90
11093;DHT22;5600;50.864;6.102;2022-10-24T08:34:10;17.80;99.90
11093;DHT22;5600;50.864;6.102;2022-10-24T08:37:12;17.80;99.90
11093;DHT22;5600;50.864;6.102;2022-10-24T08:40:17;17.90;99.90
11093;DHT22;5600;50.864;6.102;2022-10-24T08:43:18;17.90;99.90
11093;DHT22;5600;50.864;6.102;2022-10-24T08:49:32;17.90;99.90
11093;DHT22;5600;50.864;6.102;2022-10-24T08:52:45;17.90;99.90
11093;DHT22;5600;50.864;6.102;2022-10-24T08:55:53;17.90;99.90
11093;DHT22;5600;50.864;6.102;2022-10-24T08:58:54;17.90;99.90
11093;DHT22;5600;50.864;6.102;2022-10-24T09:01:58;17.90;99.90
11093;DHT22;5600;50.864;6.102;2022-10-24T09:05:03;17.90;99.90
11093;DHT22;5600;50.864;6.102;2022-10-24T09:11:30;17.90;99.90
11093;DHT22;5600;50.864;6.102;2022-10-24T09:14:37;18.10;99.90
11093;DHT22;5600;50.864;6.102;2022-10-24T09:17:38;18.30;99.90
11093;DHT22;5600;50.864;6.102;2022-10-24T09:20:41;18.20;99.90
11093;DHT22;5600;50.864;6.102;2022-10-24T09:23:42;18.20;99.90
11093;DHT22;5600;50.864;6.102;2022-10-24T09:26:43;18.20;99.90
11093;DHT22;5600;50.864;6.102;2022-10-24T09:29:45;18.10;99.90
11093;DHT22;5600;50.864;6.102;2022-10-24T09:32:46;18.00;99.90
11093;DHT22;5600;50.864;6.102;2022-10-24T09:35:48;18.00;99.90
11093;DHT22;5600;50.864;6.102;2022-10-24T09:38:50;17.90;99.90
11093;DHT22;5600;50.864;6.102;2022-10-24T09:41:50;17.90;99.90
11093;DHT22;5600;50.864;6.102;2022-10-24T09:44:56;17.90;99.90
11093;DHT22;5600;50.864;6.102;2022-10-24T09:48:00;17.90;99.90
11093;DHT22;5600;50.864;6.102;2022-10-24T09:51:02;17.80;99.90
11093;DHT22;5600;50.864;6.102;2022-10-24T09:57:14;17.80;99.90
11093;DHT22;5600;50.864;6.102;2022-10-24T10:00:26;17.80;99.90
11093;DHT22;5600;50.864;6.102;2022-10-24T10:03:27;17.80;99.90
11093;DHT22;5600;50.864;6.102;2022-10-24T10:06:28;17.70;99.90
11093;DHT22;5600;50.864;6.102;2022-10-24T10:09:32;17.70;99.90
11093;DHT22;5600;50.864;6.102;2022-10-24T10:12:40;17.70;99.90
11093;DHT22;5600;50.864;6.102;2022-10-24T10:19:03;17.90;99.90
11093;DHT22;5600;50.864;6.102;2022-10-24T10:22:25;18.10;99.90
11093;DHT22;5600;50.864;6.102;2022-10-24T10:25:29;18.10;99.90
11093;DHT22;5600;50.864;6.102;2022-10-24T10:28:35;18.20;99.90
11093;DHT22;5600;50.864;6.102;2022-10-24T10:31:44;18.20;99.90
11093;DHT22;5600;50.864;6.102;2022-10-24T10:34:59;18.20;99.90
11093;DHT22;5600;50.864;6.102;2022-10-24T10:47:52;18.70;99.90
11093;DHT22;5600;50.864;6.102;2022-10-24T10:51:25;18.80;99.90
11093;DHT22;5600;50.864;6.102;2022-10-24T10:58:01;19.00;99.90
11093;DHT22;5600;50.864;6.102;2022-10-24T11:01:13;19.00;99.90
11093;DHT22;5600;50.864;6.102;2022-10-24T11:04:46;18.90;99.90
11093;DHT22;5600;50.864;6.102;2022-10-24T11:11:03;18.60;99.90
11093;DHT22;5600;50.864;6.102;2022-10-24T11:14:30;18.50;99.90
11093;DHT22;5600;50.864;6.102;2022-10-24T11:20:43;18.40;99.90
11093;DHT22;5600;50.864;6.102;2022-10-24T11:23:56;18.20;99.90
11093;DHT22;5600;50.864;6.102;2022-10-24T11:27:18;18.20;99.90
11093;DHT22;5600;50.864;6.102;2022-10-24T11:30:39;18.20;99.90
11093;DHT22;5600;50.864;6.102;2022-10-24T11:33:46;18.10;99.90
11093;DHT22;5600;50.864;6.102;2022-10-24T11:40:23;18.80;99.90
11093;DHT22;5600;50.864;6.102;2022-10-24T11:43:32;18.10;99.90
11093;DHT22;5600;50.864;6.102;2022-10-24T11:46:41;18.10;99.90
11093;DHT22;5600;50.864;6.102;2022-10-24T11:49:47;18.10;99.90
11093;DHT22;5600;50.864;6.102;2022-10-24T11:52:51;18.10;99.90
11093;DHT22;5600;50.864;6.102;2022-10-24T11:56:16;18.10;99.90
11093;DHT22;5600;50.864;6.102;2022-10-24T11:59:19;18.10;99.90
11093;DHT22;5600;50.864;6.102;2022-10-24T12:03:00;17.90;99.90
11093;DHT22;5600;50.864;6.102;2022-10-24T12:19:49;17.50;99.90
11093;DHT22;5600;50.864;6.102;2022-10-24T12:22:51;17.70;99.90
11093;DHT22;5600;50.864;6.102;2022-10-24T12:29:20;17.90;99.90
11093;DHT22;5600;50.864;6.102;2022-10-24T12:35:34;18.00;99.90
11093;DHT22;5600;50.864;6.102;2022-10-24T12:41:37;18.20;99.90
11093;DHT22;5600;50.864;6.102;2022-10-24T12:44:39;18.20;99.90
11093;DHT22;5600;50.864;6.102;2022-10-24T12:47:42;18.20;99.90
11093;DHT22;5600;50.864;6.102;2022-10-24T12:57:28;18.50;99.90
11093;DHT22;5600;50.864;6.102;2022-10-24T13:00:32;18.60;99.90
11093;DHT22;5600;50.864;6.102;2022-10-24T13:03:41;18.70;99.90
11093;DHT22;5600;50.864;6.102;2022-10-24T13:07:04;18.80;99.90
11093;DHT22;5600;50.864;6.102;2022-10-24T13:17:08;19.10;99.90
11093;DHT22;5600;50.864;6.102;2022-10-24T13:20:17;19.00;99.90
11093;DHT22;5600;50.864;6.102;2022-10-24T13:23:23;19.00;99.90
11093;DHT22;5600;50.864;6.102;2022-10-24T13:26:41;18.90;99.90
11093;DHT22;5600;50.864;6.102;2022-10-24T13:32:43;18.60;99.90
11093;DHT22;5600;50.864;6.102;2022-10-24T13:39:27;18.60;99.90
11093;DHT22;5600;50.864;6.102;2022-10-24T13:42:34;18.90;99.90
11093;DHT22;5600;50.864;6.102;2022-10-24T13:45:50;19.10;99.90
11093;DHT22;5600;50.864;6.102;2022-10-24T13:48:53;19.10;99.90
11093;DHT22;5600;50.864;6.102;2022-10-24T13:52:01;19.30;99.90
11093;DHT22;5600;50.864;6.102;2022-10-24T13:58:21;19.20;99.90
11093;DHT22;5600;50.864;6.102;2022-10-24T14:01:25;19.20;99.90
11093;DHT22;5600;50.864;6.102;2022-10-24T14:04:27;19.10;99.90
11093;DHT22;5600;50.864;6.102;2022-10-24T14:07:30;19.20;99.90
11093;DHT22;5600;50.864;6.102;2022-10-24T14:10:33;19.20;99.90
11093;DHT22;5600;50.864;6.102;2022-10-24T14:13:37;19.10;99.90
11093;DHT22;5600;50.864;6.102;2022-10-24T14:16:41;19.10;99.90
11093;DHT22;5600;50.864;6.102;2022-10-24T14:19:55;19.10;99.90
11093;DHT22;5600;50.864;6.102;2022-10-24T14:22:56;19.00;99.90
11093;DHT22;5600;50.864;6.102;2022-10-24T14:26:00;19.00;99.90
11093;DHT22;5600;50.864;6.102;2022-10-24T14:29:02;18.90;99.90
11093;DHT22;5600;50.864;6.102;2022-10-24T14:32:05;18.90;99.90
11093;DHT22;5600;50.864;6.102;2022-10-24T14:35:11;18.90;99.90
11093;DHT22;5600;50.864;6.102;2022-10-24T14:38:15;18.80;99.90
11093;DHT22;5600;50.864;6.102;2022-10-24T14:41:17;18.70;99.90
11093;DHT22;5600;50.864;6.102;2022-10-24T14:44:20;18.70;99.90
11093;DHT22;5600;50.864;6.102;2022-10-24T14:53:34;18.60;99.90
11093;DHT22;5600;50.864;6.102;2022-10-24T14:56:36;18.50;99.90
11093;DHT22;5600;50.864;6.102;2022-10-24T14:59:43;18.40;99.90
11093;DHT22;5600;50.864;6.102;2022-10-24T15:02:46;18.50;99.90
11093;DHT22;5600;50.864;6.102;2022-10-24T15:06:15;18.50;99.90
11093;DHT22;5600;50.864;6.102;2022-10-24T15:09:20;18.40;99.90
11093;DHT22;5600;50.864;6.102;2022-10-24T15:15:53;18.30;99.90
11093;DHT22;5600;50.864;6.102;2022-10-24T15:18:56;18.30;99.90
11093;DHT22;5600;50.864;6.102;2022-10-24T15:21:57;18.20;99.90
11093;DHT22;5600;50.864;6.102;2022-10-24T15:25:07;18.20;99.90
11093;DHT22;5600;50.864;6.102;2022-10-24T15:31:37;18.10;99.90
11093;DHT22;5600;50.864;6.102;2022-10-24T15:34:38;18.10;99.90
11093;DHT22;5600;50.864;6.102;2022-10-24T15:37:39;18.00;99.90
11093;DHT22;5600;50.864;6.102;2022-10-24T15:40:43;17.90;99.90
11093;DHT22;5600;50.864;6.102;2022-10-24T15:43:44;17.90;99.90
11093;DHT22;5600;50.864;6.102;2022-10-24T15:46:45;17.80;99.90
11093;DHT22;5600;50.864;6.102;2022-10-24T15:49:46;17.80;99.90
11093;DHT22;5600;50.864;6.102;2022-10-24T15:52:55;17.60;99.90
11093;DHT22;5600;50.864;6.102;2022-10-24T15:55:57;17.50;99.90
11093;DHT22;5600;50.864;6.102;2022-10-24T15:58:58;17.50;99.90
11093;DHT22;5600;50.864;6.102;2022-10-24T16:02:00;17.40;99.90
11093;DHT22;5600;50.864;6.102;2022-10-24T16:05:02;17.40;99.90
11093;DHT22;5600;50.864;6.102;2022-10-24T16:08:03;17.40;99.90
11093;DHT22;5600;50.864;6.102;2022-10-24T16:11:04;17.40;99.90
11093;DHT22;5600;50.864;6.102;2022-10-24T16:14:05;17.30;99.90
11093;DHT22;5600;50.864;6.102;2022-10-24T16:17:05;17.30;99.90
11093;DHT22;5600;50.864;6.102;2022-10-24T16:20:06;17.20;99.90
11093;DHT22;5600;50.864;6.102;2022-10-24T16:23:07;17.20;99.90
11093;DHT22;5600;50.864;6.102;2022-10-24T16:26:09;17.10;99.90
11093;DHT22;5600;50.864;6.102;2022-10-24T16:29:10;17.10;99.90
11093;DHT22;5600;50.864;6.102;2022-10-24T16:32:11;17.00;99.90
11093;DHT22;5600;50.864;6.102;2022-10-24T16:35:27;17.00;99.90
11093;DHT22;5600;50.864;6.102;2022-10-24T16:38:27;16.90;99.90
11093;DHT22;5600;50.864;6.102;2022-10-24T16:41:28;16.80;99.90
11093;DHT22;5600;50.864;6.102;2022-10-24T16:44:29;16.90;99.90
11093;DHT22;5600;50.864;6.102;2022-10-24T16:47:32;17.00;99.90
11093;DHT22;5600;50.864;6.102;2022-10-24T16:50:33;17.00;99.90
11093;DHT22;5600;50.864;6.102;2022-10-24T16:53:34;16.90;99.90
11093;DHT22;5600;50.864;6.102;2022-10-24T16:56:34;16.90;99.90
11093;DHT22;5600;50.864;6.102;2022-10-24T16:59:35;16.80;99.90
11093;DHT22;5600;50.864;6.102;2022-10-24T17:02:35;16.80;99.90
11093;DHT22;5600;50.864;6.102;2022-10-24T17:05:36;16.90;99.90
11093;DHT22;5600;50.864;6.102;2022-10-24T17:08:37;16.80;99.90
11093;DHT22;5600;50.864;6.102;2022-10-24T17:11:38;16.90;99.90
11093;DHT22;5600;50.864;6.102;2022-10-24T17:14:40;16.90;99.90
11093;DHT22;5600;50.864;6.102;2022-10-24T17:17:40;17.00;99.90
11093;DHT22;5600;50.864;6.102;2022-10-24T17:20:42;16.90;99.90
11093;DHT22;5600;50.864;6.102;2022-10-24T17:23:43;16.90;99.90
11093;DHT22;5600;50.864;6.102;2022-10-24T17:26:44;16.90;99.90
11093;DHT22;5600;50.864;6.102;2022-10-24T17:29:47;16.90;99.90
11093;DHT22;5600;50.864;6.102;2022-10-24T17:32:47;16.90;99.90
11093;DHT22;5600;50.864;6.102;2022-10-24T17:35:52;16.80;99.90
11093;DHT22;5600;50.864;6.102;2022-10-24T17:38:55;16.70;99.90
11093;DHT22;5600;50.864;6.102;2022-10-24T17:41:58;16.60;99.90
11093;DHT22;5600;50.864;6.102;2022-10-24T17:44:59;16.60;99.90
11093;DHT22;5600;50.864;6.102;2022-10-24T17:48:00;16.50;99.90
11093;DHT22;5600;50.864;6.102;2022-10-24T17:51:01;16.60;99.90
11093;DHT22;5600;50.864;6.102;2022-10-24T17:54:02;16.50;99.90
11093;DHT22;5600;50.864;6.102;2022-10-24T17:57:05;16.50;99.90
11093;DHT22;5600;50.864;6.102;2022-10-24T18:00:07;16.50;99.90
11093;DHT22;5600;50.864;6.102;2022-10-24T18:03:12;16.60;99.90
11093;DHT22;5600;50.864;6.102;2022-10-24T18:06:13;16.80;99.90
11093;DHT22;5600;50.864;6.102;2022-10-24T18:09:14;16.70;99.90
11093;DHT22;5600;50.864;6.102;2022-10-24T18:12:15;16.80;99.90
11093;DHT22;5600;50.864;6.102;2022-10-24T18:15:17;16.80;99.90
11093;DHT22;5600;50.864;6.102;2022-10-24T18:18:21;16.70;99.90
11093;DHT22;5600;50.864;6.102;2022-10-24T18:21:23;16.70;99.90
11093;DHT22;5600;50.864;6.102;2022-10-24T18:24:24;16.70;99.90
11093;DHT22;5600;50.864;6.102;2022-10-24T18:27:25;16.80;99.90
11093;DHT22;5600;50.864;6.102;2022-10-24T18:30:26;16.70;99.90
11093;DHT22;5600;50.864;6.102;2022-10-24T18:33:27;16.70;99.90
11093;DHT22;5600;50.864;6.102;2022-10-24T18:36:29;16.70;99.90
11093;DHT22;5600;50.864;6.102;2022-10-24T18:39:31;16.60;99.90
11093;DHT22;5600;50.864;6.102;2022-10-24T18:42:48;16.60;99.90
11093;DHT22;5600;50.864;6.102;2022-10-24T18:45:50;16.60;99.90
11093;DHT22;5600;50.864;6.102;2022-10-24T18:48:51;16.60;99.90
11093;DHT22;5600;50.864;6.102;2022-10-24T18:52:00;16.60;99.90
11093;DHT22;5600;50.864;6.102;2022-10-24T18:55:16;16.50;99.90
11093;DHT22;5600;50.864;6.102;2022-10-24T18:58:18;16.50;99.90
11093;DHT22;5600;50.864;6.102;2022-10-24T19:05:06;16.40;99.90
11093;DHT22;5600;50.864;6.102;2022-10-24T19:08:15;16.40;99.90
11093;DHT22;5600;50.864;6.102;2022-10-24T19:11:16;16.40;99.90
11093;DHT22;5600;50.864;6.102;2022-10-24T19:14:18;16.30;99.90
11093;DHT22;5600;50.864;6.102;2022-10-24T19:17:20;16.30;99.90
11093;DHT22;5600;50.864;6.102;2022-10-24T19:20:22;16.30;99.90
11093;DHT22;5600;50.864;6.102;2022-10-24T19:23:23;16.30;99.90
11093;DHT22;5600;50.864;6.102;2022-10-24T19:26:24;16.20;99.90
11093;DHT22;5600;50.864;6.102;2022-10-24T19:29:25;16.20;99.90
11093;DHT22;5600;50.864;6.102;2022-10-24T19:32:26;16.20;99.90
11093;DHT22;5600;50.864;6.102;2022-10-24T19:35:26;16.20;99.90
11093;DHT22;5600;50.864;6.102;2022-10-24T19:38:27;16.10;99.90
11093;DHT22;5600;50.864;6.102;2022-10-24T19:41:28;16.00;99.90
11093;DHT22;5600;50.864;6.102;2022-10-24T19:44:29;16.10;99.90
11093;DHT22;5600;50.864;6.102;2022-10-24T19:47:29;16.00;99.90
11093;DHT22;5600;50.864;6.102;2022-10-24T19:50:30;16.00;99.90
11093;DHT22;5600;50.864;6.102;2022-10-24T19:53:33;16.00;99.90
11093;DHT22;5600;50.864;6.102;2022-10-24T19:56:34;15.90;99.90
11093;DHT22;5600;50.864;6.102;2022-10-24T19:59:35;15.90;99.90
11093;DHT22;5600;50.864;6.102;2022-10-24T20:02:36;15.90;99.90
11093;DHT22;5600;50.864;6.102;2022-10-24T20:05:37;15.90;99.90
11093;DHT22;5600;50.864;6.102;2022-10-24T20:08:38;16.00;99.90
11093;DHT22;5600;50.864;6.102;2022-10-24T20:11:39;15.90;99.90
11093;DHT22;5600;50.864;6.102;2022-10-24T20:14:39;15.90;99.90
11093;DHT22;5600;50.864;6.102;2022-10-24T20:17:40;15.80;99.90
11093;DHT22;5600;50.864;6.102;2022-10-24T20:20:41;15.80;99.90
11093;DHT22;5600;50.864;6.102;2022-10-24T20:23:45;15.80;99.90
11093;DHT22;5600;50.864;6.102;2022-10-24T20:26:46;15.70;99.90
11093;DHT22;5600;50.864;6.102;2022-10-24T20:29:46;15.80;99.90
11093;DHT22;5600;50.864;6.102;2022-10-24T20:32:47;15.70;99.90
11093;DHT22;5600;50.864;6.102;2022-10-24T20:35:48;15.70;99.90
11093;DHT22;5600;50.864;6.102;2022-10-24T20:38:48;15.70;99.90
11093;DHT22;5600;50.864;6.102;2022-10-24T20:41:49;15.70;99.90
11093;DHT22;5600;50.864;6.102;2022-10-24T20:44:50;15.80;99.90
11093;DHT22;5600;50.864;6.102;2022-10-24T20:47:51;15.80;99.90
11093;DHT22;5600;50.864;6.102;2022-10-24T20:50:52;15.80;99.90
11093;DHT22;5600;50.864;6.102;2022-10-24T20:53:53;15.80;99.90
11093;DHT22;5600;50.864;6.102;2022-10-24T20:56:53;15.80;99.90
11093;DHT22;5600;50.864;6.102;2022-10-24T20:59:54;15.70;99.90
11093;DHT22;5600;50.864;6.102;2022-10-24T21:02:55;15.70;99.90
11093;DHT22;5600;50.864;6.102;2022-10-24T21:05:55;15.70;99.90
11093;DHT22;5600;50.864;6.102;2022-10-24T21:09:00;15.70;99.90
11093;DHT22;5600;50.864;6.102;2022-10-24T21:12:02;15.70;99.90
11093;DHT22;5600;50.864;6.102;2022-10-24T21:15:03;15.60;99.90
11093;DHT22;5600;50.864;6.102;2022-10-24T21:18:03;15.50;99.90
11093;DHT22;5600;50.864;6.102;2022-10-24T21:21:09;15.50;99.90
11093;DHT22;5600;50.864;6.102;2022-10-24T21:24:13;15.50;99.90
11093;DHT22;5600;50.864;6.102;2022-10-24T21:27:14;15.50;99.90
11093;DHT22;5600;50.864;6.102;2022-10-24T21:30:15;15.50;99.90
11093;DHT22;5600;50.864;6.102;2022-10-24T21:33:15;15.50;99.90
11093;DHT22;5600;50.864;6.102;2022-10-24T21:36:19;15.40;99.90
11093;DHT22;5600;50.864;6.102;2022-10-24T21:39:20;15.40;99.90